createdAt,value
2022-10-18T00:01:00.644Z,-20730.53
2022-10-18T00:02:02.917Z,-20730.72
2022-10-18T00:03:05.094Z,-20730.72
2022-10-18T00:04:07.210Z,-20725.38
2022-10-18T00:05:09.790Z,-20729.81
2022-10-18T00:06:12.259Z,-20728.69
2022-10-18T00:07:14.423Z,-20730.16
2022-10-18T00:08:17.999Z,-20733.13
2022-10-18T00:09:20.144Z,-20728.88
2022-10-18T00:10:24.568Z,-20730.72
2022-10-18T00:11:26.758Z,-20731.09
2022-10-18T00:12:28.979Z,-20732.00
2022-10-18T00:13:31.146Z,-20731.28
2022-10-18T00:14:33.313Z,-20730.34
2022-10-18T00:15:35.426Z,-20730.53
2022-10-18T00:16:37.629Z,-20733.13
2022-10-18T00:17:39.947Z,-20734.03
2022-10-18T00:18:42.600Z,-20732.75
2022-10-18T00:19:44.973Z,-20734.22
2022-10-18T00:21:03.114Z,-20742.34
2022-10-18T00:22:05.257Z,-20729.81
2022-10-18T00:23:07.348Z,-20728.69
2022-10-18T00:24:09.686Z,-20727.94
2022-10-18T00:25:11.925Z,-20726.47
2022-10-18T00:26:17.313Z,-20725.00
2022-10-18T00:27:19.542Z,-20723.69
2022-10-18T00:28:21.651Z,-20724.63
2022-10-18T00:29:23.781Z,-20723.53
2022-10-18T00:30:25.967Z,-20721.69
2022-10-18T00:31:31.304Z,-20727.59
2022-10-18T00:32:38.251Z,-20729.41
2022-10-18T00:33:41.299Z,-20719.47
2022-10-18T00:34:43.441Z,-20718.34
2022-10-18T00:35:45.538Z,-20719.47
2022-10-18T00:36:47.681Z,-20718.53
2022-10-18T00:37:49.805Z,-20719.47
2022-10-18T00:38:52.201Z,-20718.72
2022-10-18T00:39:54.372Z,-20716.50
2022-10-18T00:40:56.472Z,-20716.69
2022-10-18T00:41:58.811Z,-20715.78
2022-10-18T00:43:00.906Z,-20715.78
2022-10-18T00:44:05.226Z,-20725.38
2022-10-18T00:45:07.838Z,-20716.16
2022-10-18T00:46:09.946Z,-20715.78
2022-10-18T00:47:14.446Z,-20720.56
2022-10-18T00:48:19.503Z,-20719.66
2022-10-18T00:49:25.198Z,-20718.34
2022-10-18T00:50:31.107Z,-20717.81
2022-10-18T00:51:38.562Z,-20719.84
2022-10-18T00:52:46.333Z,-20720.19
2022-10-18T00:53:49.417Z,-20714.09
2022-10-18T00:54:52.672Z,-20714.28
2022-10-18T00:55:54.832Z,-20709.50
2022-10-18T00:56:57.259Z,-20710.44
2022-10-18T00:58:00.394Z,-20710.59
2022-10-18T00:59:03.150Z,-20708.75
2022-10-18T01:00:09.757Z,-20712.44
2022-10-18T01:01:12.004Z,-20706.72
2022-10-18T01:02:15.883Z,-20706.91
2022-10-18T01:03:18.022Z,-20703.59
2022-10-18T01:04:21.162Z,-20708.03
2022-10-18T01:05:24.080Z,-20704.69
2022-10-18T01:06:28.338Z,-20710.25
2022-10-18T01:07:55.234Z,-20717.25
2022-10-18T01:09:15.021Z,-20717.63
2022-10-18T01:10:19.915Z,-20716.16
2022-10-18T01:11:33.407Z,-20715.41
2022-10-18T01:12:57.193Z,-20715.22
2022-10-18T01:14:05.474Z,-20717.44
2022-10-18T01:15:19.939Z,-20703.34
2022-10-18T01:16:29.934Z,-20376.94
2022-10-18T01:17:41.334Z,-20714.28
2022-10-18T01:19:17.168Z,-20712.75
2022-10-18T01:20:34.359Z,-20061.97
2022-10-18T01:21:55.966Z,-19409.00
2022-10-18T01:23:20.957Z,-18755.91
2022-10-18T01:24:34.849Z,-18756.25
2022-10-18T01:25:57.106Z,-19406.91
2022-10-18T01:27:09.565Z,-18094.81
2022-10-18T01:28:30.224Z,-19070.47
2022-10-18T01:30:00.214Z,-19732.41
2022-10-18T01:31:09.982Z,-19729.22
2022-10-18T01:32:30.647Z,-20057.50
2022-10-18T01:33:39.930Z,-19729.06
2022-10-18T01:34:45.787Z,-18750.50
2022-10-18T01:35:56.540Z,-18424.53
2022-10-18T01:37:01.911Z,-18095.47
2022-10-18T01:38:07.699Z,-19072.34
2022-10-18T01:39:15.400Z,-20374.75
2022-10-18T01:40:20.937Z,-20698.38
2022-10-18T01:41:25.105Z,-20696.91
2022-10-18T01:42:27.830Z,-20369.84
2022-10-18T01:43:32.071Z,-20370.03
2022-10-18T01:44:36.662Z,-20695.59
2022-10-18T01:45:39.599Z,-20366.72
2022-10-18T01:46:43.885Z,-20370.38
2022-10-18T01:47:47.527Z,-20368.94
2022-10-18T01:48:50.369Z,-20040.66
2022-10-18T01:50:00.580Z,-20698.75
2022-10-18T01:51:02.705Z,-20361.66
2022-10-18T01:52:05.478Z,-20688.47
2022-10-18T01:53:22.350Z,-20699.16
2022-10-18T01:54:35.257Z,-20699.53
2022-10-18T01:55:51.021Z,-20698.44
2022-10-18T01:57:24.547Z,-20699.72
2022-10-18T01:58:42.069Z,-20701.56
2022-10-18T01:59:52.738Z,-20702.13
2022-10-18T02:01:05.250Z,-20702.13
2022-10-18T02:02:26.076Z,-20365.28
2022-10-18T02:03:29.723Z,-20372.19
2022-10-18T02:04:44.311Z,-20701.19
2022-10-18T02:05:50.860Z,-20689.88
2022-10-18T02:07:03.998Z,-20700.84
2022-10-18T02:08:24.289Z,-20704.88
2022-10-18T02:09:42.849Z,-20703.03
2022-10-18T02:10:49.780Z,-20699.91
2022-10-18T02:11:54.657Z,-20697.31
2022-10-18T02:12:58.243Z,-20695.13
2022-10-18T02:14:06.225Z,-20700.66
2022-10-18T02:15:12.032Z,-20700.66
2022-10-18T02:16:20.249Z,-20703.03
2022-10-18T02:17:27.834Z,-20701.56
2022-10-18T02:18:41.265Z,-20703.78
2022-10-18T02:19:48.190Z,-20702.31
2022-10-18T02:20:51.785Z,-20701.38
2022-10-18T02:21:57.433Z,-20701.03
2022-10-18T02:23:01.364Z,-20698.38
2022-10-18T02:24:05.685Z,-20702.50
2022-10-18T02:25:13.732Z,-20705.25
2022-10-18T02:26:16.599Z,-20699.34
2022-10-18T02:27:18.900Z,-20698.81
2022-10-18T02:28:22.111Z,-20703.59
2022-10-18T02:29:25.088Z,-20697.69
2022-10-18T02:30:59.049Z,-20709.69
2022-10-18T02:32:28.900Z,-20709.13
2022-10-18T02:33:43.930Z,-20708.75
2022-10-18T02:35:03.605Z,-20710.06
2022-10-18T02:36:13.237Z,-20704.88
2022-10-18T02:37:17.672Z,-20700.47
2022-10-18T02:38:21.526Z,-20701.38
2022-10-18T02:39:46.275Z,-20710.97
2022-10-18T02:40:48.406Z,-20702.50
2022-10-18T02:41:50.791Z,-20702.84
2022-10-18T02:42:58.338Z,-20710.06
2022-10-18T02:44:00.500Z,-20700.47
2022-10-18T02:45:04.813Z,-20705.44
2022-10-18T02:46:07.121Z,-20701.94
2022-10-18T02:47:11.235Z,-20706.56
2022-10-18T02:48:13.350Z,-20703.97
2022-10-18T02:49:15.483Z,-20702.50
2022-10-18T02:50:18.206Z,-20703.97
2022-10-18T02:51:20.340Z,-20703.22
2022-10-18T02:52:22.479Z,-20703.97
2022-10-18T02:53:24.635Z,-20704.69
2022-10-18T02:54:26.842Z,-20704.34
2022-10-18T02:56:36.330Z,-20705.63
2022-10-18T02:57:38.455Z,-20705.25
2022-10-18T02:58:40.579Z,-20706.19
2022-10-18T02:59:42.676Z,-20703.97
2022-10-18T03:00:44.793Z,-20704.16
2022-10-18T03:01:47.016Z,-20707.09
2022-10-18T03:02:49.290Z,-20703.03
2022-10-18T03:03:51.644Z,-20705.81
2022-10-18T03:04:53.819Z,-20706.19
2022-10-18T03:05:56.187Z,-20706.19
2022-10-18T03:06:58.324Z,-20705.63
2022-10-18T03:08:00.461Z,-20705.63
2022-10-18T03:09:04.998Z,-20712.44
2022-10-18T03:10:07.677Z,-20710.59
2022-10-18T03:11:09.819Z,-20708.03
2022-10-18T03:12:11.966Z,-20707.09
2022-10-18T03:13:14.507Z,-20705.00
2022-10-18T03:14:16.634Z,-20706.56
2022-10-18T03:15:18.752Z,-20707.09
2022-10-18T03:16:20.950Z,-20698.75
2022-10-18T03:17:46.785Z,-20709.69
2022-10-18T03:18:48.954Z,-20700.47
2022-10-18T03:19:51.090Z,-20697.50
2022-10-18T03:20:53.217Z,-20697.88
2022-10-18T03:21:55.321Z,-20685.88
2022-10-18T03:22:57.439Z,-20687.91
2022-10-18T03:23:59.790Z,-20690.69
2022-10-18T03:25:01.911Z,-20695.47
2022-10-18T03:26:04.358Z,-20698.63
2022-10-18T03:27:06.483Z,-20693.63
2022-10-18T03:28:08.767Z,-20696.97
2022-10-18T03:29:11.394Z,-20698.25
2022-10-18T03:30:13.780Z,-20694.53
2022-10-18T03:31:15.933Z,-20697.31
2022-10-18T03:32:19.432Z,-20699.72
2022-10-18T03:33:21.526Z,-20701.75
2022-10-18T03:34:23.635Z,-20702.84
2022-10-18T03:35:25.845Z,-20699.47
2022-10-18T03:36:28.293Z,-20694.69
2022-10-18T03:37:30.680Z,-20695.59
2022-10-18T03:38:32.826Z,-20696.97
2022-10-18T03:39:34.928Z,-20697.31
2022-10-18T03:40:37.090Z,-20696.78
2022-10-18T03:41:39.290Z,-20699.16
2022-10-18T03:42:41.398Z,-20694.00
2022-10-18T03:43:43.590Z,-20696.03
2022-10-18T03:44:45.782Z,-20697.69
2022-10-18T03:45:48.116Z,-20700.47
2022-10-18T03:46:50.222Z,-20691.41
2022-10-18T03:47:52.369Z,-20687.34
2022-10-18T03:48:54.585Z,-20692.53
2022-10-18T03:49:57.317Z,-20689.56
2022-10-18T03:50:59.701Z,-20693.44
2022-10-18T03:52:01.818Z,-20691.03
2022-10-18T03:53:03.981Z,-20688.09
2022-10-18T03:54:06.108Z,-20682.94
2022-10-18T03:55:08.370Z,-20680.72
2022-10-18T03:56:10.519Z,-20686.44
2022-10-18T03:57:12.600Z,-20688.47
2022-10-18T03:58:14.699Z,-20690.88
2022-10-18T03:59:17.740Z,-20692.16
2022-10-18T04:00:19.915Z,-20684.72
2022-10-18T04:01:22.100Z,-20689.00
2022-10-18T04:02:24.377Z,-20689.00
2022-10-18T04:03:26.558Z,-20689.75
2022-10-18T04:04:28.648Z,-20692.34
2022-10-18T04:05:31.386Z,-20688.84
2022-10-18T04:06:33.515Z,-20687.84
2022-10-18T04:08:43.297Z,-20692.09
2022-10-18T04:09:45.472Z,-20365.28
2022-10-18T04:10:48.187Z,-20692.28
2022-10-18T04:11:51.030Z,-20696.53
2022-10-18T04:12:53.242Z,-20694.13
2022-10-18T04:13:55.340Z,-20695.78
2022-10-18T04:14:57.490Z,-20041.38
2022-10-18T04:15:59.602Z,-20365.81
2022-10-18T04:17:01.746Z,-20690.81
2022-10-18T04:18:04.069Z,-20691.72
2022-10-18T04:19:06.164Z,-20367.09
2022-10-18T04:20:08.733Z,-20369.28
2022-10-18T04:21:10.841Z,-20370.03
2022-10-18T04:22:13.111Z,-19718.09
2022-10-18T04:23:15.215Z,-19389.88
2022-10-18T04:24:17.913Z,-20038.31
2022-10-18T04:25:20.040Z,-20038.84
2022-10-18T04:26:22.802Z,-20035.63
2022-10-18T04:27:25.408Z,-20690.25
2022-10-18T04:28:27.590Z,-20368.94
2022-10-18T04:29:29.794Z,-19719.50
2022-10-18T04:30:31.897Z,-18742.41
2022-10-18T04:31:34.098Z,-18416.22
2022-10-18T04:32:36.259Z,-18740.53
2022-10-18T04:33:38.842Z,-18743.41
2022-10-18T04:34:40.952Z,-18417.22
2022-10-18T04:35:43.074Z,-18417.56
2022-10-18T04:36:45.230Z,-18090.41
2022-10-18T04:37:47.326Z,-17764.88
2022-10-18T04:38:49.442Z,-19063.59
2022-10-18T04:39:53.626Z,-18738.69
2022-10-18T04:40:56.096Z,-18413.25
2022-10-18T04:41:58.244Z,-18090.88
2022-10-18T04:43:00.383Z,-17759.41
2022-10-18T04:44:02.506Z,-19377.69
2022-10-18T04:45:05.037Z,-20683.06
2022-10-18T04:46:07.162Z,-20358.56
2022-10-18T04:47:09.290Z,-20034.91
2022-10-18T04:48:11.459Z,-19713.69
2022-10-18T04:49:13.608Z,-18409.91
2022-10-18T04:50:15.842Z,-19385.34
2022-10-18T04:51:17.968Z,-19061.03
2022-10-18T04:52:20.189Z,-18082.88
2022-10-18T04:53:22.300Z,-19059.66
2022-10-18T04:54:26.561Z,-19060.00
2022-10-18T04:55:30.773Z,-18736.66
2022-10-18T04:56:32.980Z,-18084.50
2022-10-18T04:57:35.186Z,-18087.44
2022-10-18T04:58:37.342Z,-17439.03
2022-10-18T04:59:39.430Z,-16454.81
2022-10-18T05:00:42.245Z,-18727.53
2022-10-18T05:01:44.430Z,-19375.59
2022-10-18T05:02:46.624Z,-20354.38
2022-10-18T05:03:52.394Z,-20690.63
2022-10-18T05:04:54.509Z,-19058.97
2022-10-18T05:06:01.769Z,-19383.25
2022-10-18T05:07:06.614Z,-18403.94
2022-10-18T05:08:08.918Z,-19381.16
2022-10-18T05:09:11.112Z,-19381.16
2022-10-18T05:10:13.197Z,-19381.16
2022-10-18T05:11:15.355Z,-19380.81
2022-10-18T05:12:17.528Z,-20024.34
2022-10-18T05:13:19.629Z,-20676.97
2022-10-18T05:14:21.751Z,-20678.44
2022-10-18T05:15:26.133Z,-20685.50
2022-10-18T05:16:28.470Z,-20678.63
2022-10-18T05:17:30.669Z,-20679.91
2022-10-18T05:18:33.042Z,-20682.13
2022-10-18T05:19:35.138Z,-20029.19
2022-10-18T05:20:37.291Z,-20679.56
2022-10-18T05:21:39.396Z,-20681.22
2022-10-18T05:22:41.595Z,-20676.22
2022-10-18T05:23:43.724Z,-20678.06
2022-10-18T05:24:45.876Z,-20677.88
2022-10-18T05:25:48.322Z,-20679.19
2022-10-18T05:26:50.429Z,-20680.66
2022-10-18T05:27:52.975Z,-20682.88
2022-10-18T05:28:55.292Z,-20355.47
2022-10-18T05:29:59.991Z,-20352.91
2022-10-18T05:31:07.637Z,-20683.28
2022-10-18T05:32:09.921Z,-20681.09
2022-10-18T05:33:12.094Z,-20683.13
2022-10-18T05:34:14.373Z,-20679.59
2022-10-18T05:35:16.602Z,-20685.31
2022-10-18T05:36:18.734Z,-20684.78
2022-10-18T05:37:26.006Z,-20348.38
2022-10-18T05:38:31.041Z,-20675.91
2022-10-18T05:39:33.359Z,-20680.72
2022-10-18T05:40:38.871Z,-20690.31
2022-10-18T05:41:41.208Z,-20684.94
2022-10-18T05:42:43.362Z,-20683.59
2022-10-18T05:43:45.556Z,-20359.09
2022-10-18T05:44:47.690Z,-20351.28
2022-10-18T05:45:52.545Z,-20688.66
2022-10-18T05:46:54.674Z,-20684.41
2022-10-18T05:47:56.816Z,-20355.09
2022-10-18T05:48:59.042Z,-20031.88
2022-10-18T05:50:01.289Z,-19706.78
2022-10-18T05:51:03.450Z,-19704.66
2022-10-18T05:52:05.678Z,-20030.97
2022-10-18T05:53:12.455Z,-20681.03
2022-10-18T05:54:21.052Z,-20033.47
2022-10-18T05:55:23.864Z,-19711.03
2022-10-18T05:56:26.358Z,-19712.78
2022-10-18T05:57:28.501Z,-19385.00
2022-10-18T05:58:30.786Z,-19386.38
2022-10-18T05:59:32.970Z,-19058.28
2022-10-18T06:00:36.291Z,-20038.84
2022-10-18T06:01:39.979Z,-20038.50
2022-10-18T06:02:42.124Z,-19057.59
2022-10-18T06:03:44.328Z,-19711.72
2022-10-18T06:04:46.518Z,-19702.53
2022-10-18T06:05:50.183Z,-20350.38
2022-10-18T06:06:52.366Z,-20668.53
2022-10-18T06:07:55.983Z,-20673.34
2022-10-18T06:08:58.571Z,-20677.75
2022-10-18T06:10:00.807Z,-20677.41
2022-10-18T06:11:17.606Z,-20692.53
2022-10-18T06:12:19.809Z,-20672.34
2022-10-18T06:13:21.937Z,-20678.13
2022-10-18T06:14:24.098Z,-20681.44
2022-10-18T06:15:26.306Z,-20680.28
2022-10-18T06:16:32.167Z,-20356.91
2022-10-18T06:17:35.270Z,-20032.94
2022-10-18T06:18:37.923Z,-20035.28
2022-10-18T06:19:40.135Z,-18733.63
2022-10-18T06:20:42.328Z,-18407.59
2022-10-18T06:21:44.434Z,-18079.44
2022-10-18T06:22:46.622Z,-19704.66
2022-10-18T06:23:53.288Z,-20688.78
2022-10-18T06:24:57.265Z,-20355.66
2022-10-18T06:26:05.369Z,-20360.91
2022-10-18T06:27:10.347Z,-18721.47
2022-10-18T06:28:12.494Z,-20671.06
2022-10-18T06:29:15.008Z,-20664.66
2022-10-18T06:30:17.287Z,-20667.78
2022-10-18T06:31:21.167Z,-20669.09
2022-10-18T06:32:23.331Z,-20671.13
2022-10-18T06:33:25.679Z,-20672.59
2022-10-18T06:34:27.902Z,-20676.28
2022-10-18T06:35:30.020Z,-20677.94
2022-10-18T06:36:32.163Z,-20675.84
2022-10-18T06:37:35.574Z,-19047.31
2022-10-18T06:38:38.019Z,-20672.16
2022-10-18T06:39:40.965Z,-20347.28
2022-10-18T06:40:43.480Z,-20024.88
2022-10-18T06:41:45.623Z,-19373.50
2022-10-18T06:43:00.396Z,-19041.16
2022-10-18T06:44:14.285Z,-20664.41
2022-10-18T06:45:18.219Z,-20655.63
2022-10-18T06:46:20.588Z,-20649.88
2022-10-18T06:47:22.736Z,-20656.72
2022-10-18T06:48:25.070Z,-20658.19
2022-10-18T06:49:27.223Z,-20656.72
2022-10-18T06:50:29.314Z,-20655.25
2022-10-18T06:51:31.439Z,-20655.06
2022-10-18T06:52:33.735Z,-20659.31
2022-10-18T06:53:43.952Z,-20669.09
2022-10-18T06:54:50.855Z,-20659.69
2022-10-18T06:55:58.509Z,-20663.75
2022-10-18T06:57:02.624Z,-20666.88
2022-10-18T06:58:04.791Z,-20671.50
2022-10-18T06:59:06.909Z,-20670.19
2022-10-18T07:00:09.581Z,-20669.22
2022-10-18T07:01:13.871Z,-20675.50
2022-10-18T07:02:19.542Z,-19697.94
2022-10-18T07:03:21.952Z,-19372.47
2022-10-18T07:04:24.176Z,-18071.09
2022-10-18T07:05:26.419Z,-19046.97
2022-10-18T07:06:28.649Z,-19039.44
2022-10-18T07:07:31.882Z,-19692.31
2022-10-18T07:08:34.847Z,-19694.06
2022-10-18T07:09:37.163Z,-18390.97
2022-10-18T07:10:39.328Z,-20010.19
2022-10-18T07:11:41.459Z,-20662.19
2022-10-18T07:12:43.604Z,-20342.38
2022-10-18T07:13:46.012Z,-20020.41
2022-10-18T07:14:48.212Z,-18721.97
2022-10-18T07:16:11.642Z,-19701.84
2022-10-18T07:17:16.343Z,-18069.63
2022-10-18T07:18:18.489Z,-17746.22
2022-10-18T07:19:20.685Z,-17743.97
2022-10-18T07:20:23.154Z,-17737.53
2022-10-18T07:21:26.711Z,-19370.38
2022-10-18T07:22:30.411Z,-17416.22
2022-10-18T07:23:34.194Z,-18069.78
2022-10-18T07:24:36.352Z,-18062.44
2022-10-18T07:25:38.497Z,-19041.66
2022-10-18T07:26:42.389Z,-18393.81
2022-10-18T07:27:44.584Z,-17093.41
2022-10-18T07:28:50.016Z,-17750.22
2022-10-18T07:29:52.264Z,-16443.53
2022-10-18T07:30:54.606Z,-16770.47
2022-10-18T07:31:56.770Z,-15468.06
2022-10-18T07:32:58.923Z,-16114.25
2022-10-18T07:34:03.766Z,-16118.84
2022-10-18T07:35:06.297Z,-16112.78
2022-10-18T07:36:10.130Z,-17414.16
2022-10-18T07:37:12.287Z,-17733.00
2022-10-18T07:38:14.415Z,-18379.66
2022-10-18T07:39:16.637Z,-19678.16
2022-10-18T07:40:18.966Z,-20327.25
2022-10-18T07:41:21.882Z,-19678.53
2022-10-18T07:42:24.030Z,-19994.22
2022-10-18T07:43:26.368Z,-20648.19
2022-10-18T07:44:28.546Z,-20652.78
2022-10-18T07:45:31.099Z,-20335.47
2022-10-18T07:46:33.522Z,-19683.81
2022-10-18T07:47:35.676Z,-18061.94
2022-10-18T07:48:37.863Z,-17742.19
2022-10-18T07:49:40.003Z,-16771.38
2022-10-18T07:50:42.170Z,-16119.56
2022-10-18T07:51:44.336Z,-16773.81
2022-10-18T07:52:46.442Z,-15473.78
2022-10-18T07:53:48.553Z,-14826.44
2022-10-18T07:56:04.570Z,-14182.22
2022-10-18T07:57:09.368Z,-11901.44
2022-10-18T07:58:12.238Z,-8967.00
2022-10-18T07:59:14.390Z,-10596.09
2022-10-18T08:00:16.645Z,-9942.72
2022-10-18T08:01:20.200Z,-11574.72
2022-10-18T08:02:25.496Z,-10924.44
2022-10-18T08:03:27.658Z,-8637.47
2022-10-18T08:04:29.785Z,-10268.25
2022-10-18T08:06:40.324Z,-10591.97
2022-10-18T08:07:42.423Z,-11572.50
2022-10-18T08:08:45.490Z,-11575.72
2022-10-18T08:09:47.605Z,-13205.78
2022-10-18T08:10:50.200Z,-13210.50
2022-10-18T08:11:52.313Z,-12560.16
2022-10-18T08:12:54.618Z,-9298.63
2022-10-18T08:13:56.867Z,-9952.03
2022-10-18T08:14:58.965Z,-5382.72
2022-10-18T08:16:06.259Z,-8648.56
2022-10-18T08:17:08.612Z,-9957.19
2022-10-18T08:18:11.127Z,-8324.25
2022-10-18T08:19:13.296Z,-8327.03
2022-10-18T08:20:29.821Z,-5716.78
2022-10-18T08:21:33.274Z,-3429.47
2022-10-18T08:22:35.392Z,-4408.72
2022-10-18T08:23:37.981Z,-4737.09
2022-10-18T08:24:40.451Z,-3429.97
2022-10-18T08:25:42.551Z,-3754.22
2022-10-18T08:26:44.692Z,-5062.13
2022-10-18T08:27:46.866Z,-3757.72
2022-10-18T08:28:58.221Z,-3759.22
2022-10-18T08:30:11.781Z,-2122.72
2022-10-18T08:31:17.427Z,1143.41
2022-10-18T08:32:19.538Z,-1144.66
2022-10-18T08:33:21.745Z,-2125.50
2022-10-18T08:34:24.032Z,-1798.25
2022-10-18T08:35:26.312Z,-2776.72
2022-10-18T08:36:28.517Z,-3104.38
2022-10-18T08:37:31.049Z,-1469.03
2022-10-18T08:38:37.563Z,-5384.94
2022-10-18T08:39:39.730Z,-8970.41
2022-10-18T08:40:44.397Z,-7341.28
2022-10-18T08:42:03.961Z,-9301.97
2022-10-18T08:43:21.933Z,-8322.81
2022-10-18T08:44:28.667Z,-10920.53
2022-10-18T08:45:41.891Z,-13201.31
2022-10-18T08:46:48.179Z,-12225.38
2022-10-18T08:47:52.032Z,-14180.38
2022-10-18T08:48:56.504Z,-12553.25
2022-10-18T08:50:03.227Z,-13867.63
2022-10-18T08:51:24.745Z,-9310.47
2022-10-18T08:52:57.460Z,-10286.81
2022-10-18T08:54:06.154Z,-11264.72
2022-10-18T08:55:15.907Z,-11597.47
2022-10-18T08:56:24.089Z,-7670.84
2022-10-18T08:57:26.347Z,-10603.19
2022-10-18T08:58:31.782Z,-10282.09
2022-10-18T08:59:39.822Z,-10286.12
2022-10-18T09:01:03.690Z,-8006.69
2022-10-18T09:02:31.643Z,-9957.97
2022-10-18T09:03:52.309Z,-13861.94
2022-10-18T09:05:09.584Z,-14520.44
2022-10-18T09:06:31.652Z,-12567.88
2022-10-18T09:08:01.551Z,-10606.28
2022-10-18T09:09:18.788Z,-11588.59
2022-10-18T09:10:40.060Z,-11579.59
2022-10-18T09:12:01.026Z,-14190.66
2022-10-18T09:13:23.138Z,-11259.31
2022-10-18T09:14:49.543Z,-10938.28
2022-10-18T09:16:14.847Z,-14192.91
2022-10-18T09:17:35.409Z,-13224.53
2022-10-18T09:18:46.249Z,-12250.47
2022-10-18T09:21:18.060Z,-9641.44
2022-10-18T09:22:22.401Z,-9316.22
2022-10-18T09:24:12.022Z,-7365.91
2022-10-18T09:25:21.841Z,-1804.69
2022-10-18T09:26:24.999Z,-3440.22
2022-10-18T09:27:46.759Z,-5398.31
2022-10-18T09:29:13.246Z,-3109.19
2022-10-18T09:30:38.466Z,-5391.13
2022-10-18T09:31:49.475Z,-8334.91
2022-10-18T09:33:23.430Z,-8978.84
2022-10-18T09:34:37.494Z,-12246.75
2022-10-18T09:35:49.431Z,-8666.69
2022-10-18T09:36:52.520Z,-3109.41
2022-10-18T09:38:02.777Z,-5074.44
2022-10-18T09:39:14.207Z,-2454.78
2022-10-18T09:40:27.498Z,-2782.38
2022-10-18T09:41:54.040Z,-5392.97
2022-10-18T09:43:12.111Z,-8665.47
2022-10-18T09:44:25.655Z,-6052.41
2022-10-18T09:45:30.884Z,-5722.13
2022-10-18T09:46:38.887Z,-4746.19
2022-10-18T09:47:51.035Z,-5730.69
2022-10-18T09:49:00.316Z,-2788.16
2022-10-18T09:50:15.452Z,4417.13
2022-10-18T09:51:23.081Z,3106.72
2022-10-18T09:52:31.969Z,487.28
2022-10-18T09:53:56.542Z,158.63
2022-10-18T09:55:12.883Z,13626.63
2022-10-18T09:56:17.035Z,22847.16
2022-10-18T09:57:32.711Z,20539.00
2022-10-18T09:58:44.551Z,27181.81
2022-10-18T09:59:49.147Z,45090.31
2022-10-18T10:00:53.337Z,69130.34
2022-10-18T10:01:55.608Z,69218.31
2022-10-18T10:03:00.432Z,149380.72
2022-10-18T10:04:02.622Z,142743.44
2022-10-18T10:05:06.191Z,150250.19
2022-10-18T10:06:15.113Z,150166.09
2022-10-18T10:07:20.556Z,150102.75
2022-10-18T10:08:32.599Z,150105.16
2022-10-18T10:09:46.265Z,150112.47
2022-10-18T10:10:48.644Z,150006.50
2022-10-18T10:11:51.928Z,149952.84
2022-10-18T10:13:26.162Z,150141.72
2022-10-18T10:14:30.651Z,150118.56
2022-10-18T10:15:37.164Z,149951.63
2022-10-18T10:16:47.897Z,150161.22
2022-10-18T10:18:05.644Z,150397.75
2022-10-18T10:19:18.697Z,150463.59
2022-10-18T10:20:36.373Z,150441.63
2022-10-18T10:21:40.068Z,150535.53
2022-10-18T10:22:44.561Z,150484.34
2022-10-18T10:23:53.267Z,150461.16
2022-10-18T10:24:55.607Z,150629.50
2022-10-18T10:26:28.890Z,150807.63
2022-10-18T10:27:43.202Z,150784.47
2022-10-18T10:28:48.642Z,150786.91
2022-10-18T10:29:56.641Z,150987.13
2022-10-18T10:31:17.396Z,150810.13
2022-10-18T10:32:22.343Z,150850.38
2022-10-18T10:33:30.546Z,150656.34
2022-10-18T10:34:32.723Z,150453.84
2022-10-18T10:35:54.045Z,150535.53
2022-10-18T10:36:56.687Z,150527.00
2022-10-18T10:37:59.100Z,150462.38
2022-10-18T10:39:07.461Z,150378.19
2022-10-18T10:40:22.891Z,150709.97
2022-10-18T10:41:26.231Z,150342.84
2022-10-18T10:42:28.451Z,150413.56
2022-10-18T10:43:39.159Z,150579.47
2022-10-18T10:44:54.916Z,150567.28
2022-10-18T10:46:06.466Z,150439.19
2022-10-18T10:47:08.666Z,150175.81
2022-10-18T10:48:16.681Z,150417.28
2022-10-18T10:49:39.519Z,150290.44
2022-10-18T10:50:55.854Z,150290.44
2022-10-18T10:52:08.791Z,150247.75
2022-10-18T10:53:38.968Z,150223.41
2022-10-18T10:54:50.417Z,150361.13
2022-10-18T10:55:56.146Z,150317.28
2022-10-18T10:57:11.208Z,150446.50
2022-10-18T10:58:18.240Z,150489.19
2022-10-18T10:59:22.942Z,150707.53
2022-10-18T11:00:38.805Z,150863.78
2022-10-18T11:01:41.821Z,150806.41
2022-10-18T11:02:55.383Z,151136.09
2022-10-18T11:04:30.306Z,151395.09
2022-10-18T11:05:43.182Z,151222.81
2022-10-18T11:06:50.568Z,150943.19
2022-10-18T11:07:56.728Z,150962.69
2022-10-18T11:09:03.217Z,151222.81
2022-10-18T11:10:11.431Z,151098.25
2022-10-18T11:11:27.848Z,151230.16
2022-10-18T11:12:36.444Z,151105.56
2022-10-18T11:14:25.717Z,151075.03
2022-10-18T11:15:44.312Z,151396.31
2022-10-18T11:17:08.438Z,151200.81
2022-10-18T11:18:14.633Z,150949.28
2022-10-18T11:19:42.935Z,151296.16
2022-10-18T11:20:55.445Z,151286.41
2022-10-18T11:22:00.671Z,151342.59
2022-10-18T11:23:07.142Z,151191.06
2022-10-18T11:24:16.532Z,151164.19
2022-10-18T11:25:20.841Z,151219.16
2022-10-18T11:26:55.248Z,151164.19
2022-10-18T11:28:22.500Z,151195.94
2022-10-18T11:29:34.089Z,151024.97
2022-10-18T11:30:38.897Z,150966.34
2022-10-18T11:32:18.874Z,151265.59
2022-10-18T11:34:07.727Z,151012.78
2022-10-18T11:35:30.196Z,150747.88
2022-10-18T11:36:55.015Z,150841.81
2022-10-18T11:38:29.247Z,150753.97
2022-10-18T11:39:49.152Z,151055.50
2022-10-18T11:41:06.513Z,150854.03
2022-10-18T11:42:40.143Z,151059.13
2022-10-18T11:44:02.809Z,150825.97
2022-10-18T11:45:05.355Z,150585.59
2022-10-18T11:46:19.326Z,150664.84
2022-10-18T11:47:30.497Z,150849.16
2022-10-18T11:48:42.394Z,150825.97
2022-10-18T11:49:47.011Z,150904.06
2022-10-18T11:51:01.463Z,151112.94
2022-10-18T11:52:46.477Z,151276.63
2022-10-18T11:54:16.224Z,151299.81
2022-10-18T11:55:49.308Z,151479.50
2022-10-18T11:57:01.918Z,151624.97
2022-10-18T11:58:25.015Z,151797.41
2022-10-18T11:59:45.867Z,151873.31
2022-10-18T12:00:50.886Z,151792.50
2022-10-18T12:02:16.929Z,152034.81
2022-10-18T12:03:54.510Z,151834.13
2022-10-18T12:06:26.301Z,151659.19
2022-10-18T12:07:36.203Z,151726.47
2022-10-18T12:08:53.419Z,151682.44
2022-10-18T12:09:56.598Z,151929.53
2022-10-18T12:11:06.584Z,152066.63
2022-10-18T12:12:24.744Z,152442.53
2022-10-18T12:13:43.499Z,152312.69
2022-10-18T12:14:56.975Z,151859.78
2022-10-18T12:16:02.179Z,151724.03
2022-10-18T12:17:40.170Z,151704.47
2022-10-18T12:19:56.848Z,151571.22
2022-10-18T12:21:01.060Z,151577.31
2022-10-18T12:22:16.321Z,151464.81
2022-10-18T12:23:30.371Z,151398.78
2022-10-18T12:24:34.252Z,151352.34
2022-10-18T12:25:41.976Z,151242.38
2022-10-18T12:26:48.496Z,150911.41
2022-10-18T12:28:08.904Z,150816.22
2022-10-18T12:29:18.627Z,150932.19
2022-10-18T12:30:32.004Z,150917.56
2022-10-18T12:31:46.049Z,151127.56
2022-10-18T12:33:03.528Z,151104.34
2022-10-18T12:34:22.898Z,151288.84
2022-10-18T12:35:28.191Z,151689.75
2022-10-18T12:36:57.344Z,151675.09
2022-10-18T12:38:37.033Z,151501.50
2022-10-18T12:40:05.528Z,151352.34
2022-10-18T12:41:21.818Z,151562.56
2022-10-18T12:42:30.717Z,151786.41
2022-10-18T12:43:36.849Z,151686.09
2022-10-18T12:44:39.874Z,151440.41
2022-10-18T12:46:02.356Z,151821.88
2022-10-18T12:47:06.461Z,151634.78
2022-10-18T12:48:36.372Z,151659.19
2022-10-18T12:49:41.464Z,151474.59
2022-10-18T12:50:59.076Z,151716.66
2022-10-18T12:52:08.054Z,151920.97
2022-10-18T12:53:10.110Z,151873.31
2022-10-18T12:54:13.067Z,151623.75
2022-10-18T12:55:21.310Z,151719.09
2022-10-18T12:56:29.316Z,151940.56
2022-10-18T12:57:53.573Z,151905.09
2022-10-18T12:59:17.026Z,152040.94
2022-10-18T13:00:31.342Z,151961.34
2022-10-18T13:01:53.523Z,151991.94